»·PEaware :: BURNY10 KSPS-KAMA

BURNY10 :: KSPS-KAMA

FLIGHT INFORMATION

Flight Status: Arrived
Operator: Unknown
More flights by this operator :: More flights under this callsign
Pilot: 80 FTW ENJJPT (22981)
Aircraft: NORTHROP T-38 AT-38 TALON
(T38)
More flights by this aircraft type
Origin: KSPS Sheppard AFB/Wichita Falls Mu
United States
Destination: KAMA Amarillo Intl
United States
More flights between these airports :: More routes between these airports
Route: +CDS PNH
File this flight plan on PilotEdge
Remarks: KAMA CDS VASTY SHP KSPS FL270
Altitude:
(Current/Filed)
28,000ft
Speed:
(Current/Filed)
0kts
Departed: 03-Sep-20 11:40 AM
Arrived: 03-Sep-20 12:46 PM
Distance/Time
Traveled:
175nm/1:06
Distance/Time
To Go:
Arrived

Flight Plot

Page will automatically refresh every two minutes.

Flight plan parsing failed; only flown route is shown


Map Options




Map Legend


Flown Route
Filed Route
Departure Airport
Arrival Airport
Navaid (VOR, NDB)
Fix

Horizontal Profiles

Position Reports

Time Latitude Longitude Heading Altitude Ground
Speed
03-Sep-20 11:14 34.003323 -98.500549 70 1027ft 0kts
03-Sep-20 11:15 34.003323 -98.500549 70 1027ft 0kts
03-Sep-20 11:16 34.003323 -98.500549 70 1027ft 0kts
03-Sep-20 11:17 34.003323 -98.500549 70 1027ft 0kts
03-Sep-20 11:18 34.003323 -98.500549 70 1027ft 0kts
03-Sep-20 11:19 34.003323 -98.500548 70 1027ft 0kts
03-Sep-20 11:20 34.003323 -98.500547 70 1027ft 0kts
03-Sep-20 11:21 34.003323 -98.500547 70 1027ft 0kts
03-Sep-20 11:22 34.003323 -98.500546 70 1027ft 0kts
03-Sep-20 11:24 34.003324 -98.500545 70 1027ft 0kts
03-Sep-20 11:28 34.003322 -98.500549 70 1027ft 0kts
03-Sep-20 11:29 34.003323 -98.500549 70 1027ft 0kts
03-Sep-20 11:30 34.003323 -98.500548 70 1027ft 0kts
03-Sep-20 11:31 34.003323 -98.500547 70 1027ft 0kts
03-Sep-20 11:32 34.003323 -98.500546 70 1027ft 0kts
03-Sep-20 11:33 34.003324 -98.500545 70 1027ft 0kts
03-Sep-20 11:34 34.003324 -98.500545 70 1027ft 0kts
03-Sep-20 11:35 34.003324 -98.500544 70 1027ft 0kts
03-Sep-20 11:36 34.003324 -98.500544 70 1027ft 0kts
03-Sep-20 11:37 34.003324 -98.500543 70 1027ft 0kts
03-Sep-20 11:38 34.003325 -98.500542 70 1027ft 0kts
03-Sep-20 11:39 34.003501 -98.499360 147 1027ft 2kts
03-Sep-20 11:39 33.987792 -98.491810 157 1092ft 223kts
03-Sep-20 11:41 33.895220 -98.459284 199 6304ft 326kts
03-Sep-20 11:42 33.866775 -98.555486 295 11141ft 393kts
03-Sep-20 11:43 33.926996 -98.687496 301 13584ft 498kts
03-Sep-20 11:43 33.984806 -98.809077 298 18119ft 490kts
03-Sep-20 11:44 34.044875 -98.956544 295 22364ft 500kts
03-Sep-20 11:45 34.103845 -99.106533 296 26021ft 495kts
03-Sep-20 11:47 34.178766 -99.278402 299 27721ft 477kts
03-Sep-20 11:47 34.232530 -99.394825 298 27941ft 474kts
03-Sep-20 11:48 34.292731 -99.536164 298 27962ft 471kts
03-Sep-20 11:49 34.354746 -99.675410 297 27914ft 480kts
03-Sep-20 11:50 34.365034 -99.698984 297 27929ft 476kts
03-Sep-20 11:51 34.424895 -99.839397 298 27952ft 464kts
03-Sep-20 11:52 34.488242 -99.978831 298 27987ft 468kts
03-Sep-20 11:53 34.549015 -100.119733 295 28114ft 480kts
03-Sep-20 11:54 34.602997 -100.267780 295 27941ft 472kts
03-Sep-20 11:55 34.661730 -100.410333 297 28028ft 484kts
03-Sep-20 11:56 34.721274 -100.548175 299 27961ft 439kts
03-Sep-20 11:57 34.784190 -100.681041 302 28233ft 477kts
03-Sep-20 11:58 34.864387 -100.806499 327 27844ft 457kts
03-Sep-20 11:59 34.968881 -100.886868 328 25999ft 437kts
03-Sep-20 12:00 35.073258 -100.958171 329 22400ft 424kts
03-Sep-20 12:01 35.169977 -101.031566 325 19957ft 379kts
03-Sep-20 12:02 35.253982 -101.112903 333 17450ft 389kts
03-Sep-20 12:03 35.354480 -101.144081 353 14768ft 374kts
03-Sep-20 12:04 35.448348 -101.164630 314 14139ft 342kts
03-Sep-20 12:05 35.435517 -101.271962 243 11677ft 345kts
03-Sep-20 12:06 35.385666 -101.373992 238 8707ft 327kts
03-Sep-20 12:07 35.339832 -101.470228 240 6444ft 321kts
03-Sep-20 12:08 35.304702 -101.549688 242 5969ft 252kts
03-Sep-20 12:09 35.277605 -101.612202 239 5081ft 213kts
03-Sep-20 12:10 35.249177 -101.671068 239 4276ft 199kts
03-Sep-20 12:11 35.213366 -101.722366 225 3766ft 242kts
03-Sep-20 12:12 35.162057 -101.786316 225 5052ft 275kts
03-Sep-20 12:13 35.101092 -101.834492 157 5714ft 270kts
03-Sep-20 12:14 35.093869 -101.756376 66 5796ft 271kts
03-Sep-20 12:15 35.127223 -101.672923 62 5802ft 276kts
03-Sep-20 12:16 35.178348 -101.606971 36 5739ft 275kts
03-Sep-20 12:17 35.238219 -101.548191 44 5762ft 277kts
03-Sep-20 12:18 35.293228 -101.481521 45 5747ft 278kts
03-Sep-20 12:19 35.354779 -101.433470 338 5161ft 278kts
03-Sep-20 12:20 35.361720 -101.511511 245 4734ft 266kts
03-Sep-20 12:21 35.329404 -101.587751 224 4763ft 221kts
03-Sep-20 12:22 35.289092 -101.635457 221 4697ft 198kts
03-Sep-20 12:23 35.250464 -101.677146 220 4038ft 184kts
03-Sep-20 12:24 35.214451 -101.720986 225 3758ft 226kts
03-Sep-20 12:25 35.161766 -101.786939 225 5278ft 265kts
03-Sep-20 12:26 35.107798 -101.853727 230 5663ft 282kts
03-Sep-20 12:27 35.104141 -101.943889 275 5755ft 279kts
03-Sep-20 12:28 35.064301 -101.996314 143 5695ft 281kts
03-Sep-20 12:29 35.066406 -101.914692 47 5661ft 262kts
03-Sep-20 12:30 35.108258 -101.858001 47 5221ft 190kts
03-Sep-20 12:31 35.143122 -101.811325 46 5115ft 184kts
03-Sep-20 12:32 35.178305 -101.766521 45 4477ft 182kts
03-Sep-20 12:33 35.212804 -101.723041 46 3618ft 177kts
03-Sep-20 12:34 35.259830 -101.663540 45 5332ft 278kts
03-Sep-20 12:35 35.247067 -101.587529 168 5811ft 280kts
03-Sep-20 12:36 35.167936 -101.594911 184 5773ft 285kts
03-Sep-20 12:37 35.091281 -101.615292 207 5728ft 284kts
03-Sep-20 12:38 35.019127 -101.656062 204 5783ft 282kts
03-Sep-20 12:39 34.980861 -101.730132 255 5789ft 283kts
03-Sep-20 12:40 35.000870 -101.816733 306 5770ft 283kts
03-Sep-20 12:41 35.058775 -101.858114 27 5481ft 264kts
03-Sep-20 12:42 35.120792 -101.821286 36 5146ft 237kts
03-Sep-20 12:43 35.162218 -101.778067 41 4905ft 171kts
03-Sep-20 12:44 35.201861 -101.736862 45 3705ft 184kts
03-Sep-20 12:45 35.217542 -101.716765 54 3610ft 26kts

Navigation Log

Ident Type
Flight plan parsing failed, navigation log unavailable